CFG852 LDZA-LGAV
Flight info
| Callsign | CFG852 |
|---|---|
| Flight time | N/A |
| Altitude | 39000 |
| Route | TEBLI1V/22 TEBLI DCT TIVNU DCT KEB DCT MEDUX UM867 KOGAT DCT TALAS DCT SIGFO UM749 ROPOX |
| Aircraft | A20N/M-SDE2E3FGHIRWXY/LB1 |
Departure
| Time | 2026-05-07 12:17 |
|---|---|
| Airport | Zagreb Franjo Tuđman International Airport (LDZA) |
Arrival
| Time | N/A |
|---|---|
| Airport | Athens Eleftherios Venizelos International Airport (LGAV) |
| Time | Latitude | Longitude | Altitude | Speed | Heading |
|---|---|---|---|---|---|
| 2026-05-07 11:54 | 45.74171 | 16.07842 | 353 ft | 0 kts | 135° |
| 2026-05-07 12:08 | 45.74181 | 16.07828 | 353 ft | 2 kts | 134° |
| 2026-05-07 12:09 | 45.74188 | 16.07818 | 353 ft | 2 kts | 135° |
| 2026-05-07 12:09 | 45.74202 | 16.07798 | 352 ft | 2 kts | 135° |
| 2026-05-07 12:09 | 45.74212 | 16.07783 | 352 ft | 2 kts | 135° |
| 2026-05-07 12:09 | 45.74222 | 16.07769 | 352 ft | 0 kts | 135° |
| 2026-05-07 12:10 | 45.74229 | 16.07758 | 351 ft | 2 kts | 119° |
| 2026-05-07 12:10 | 45.74234 | 16.07737 | 351 ft | 2 kts | 93° |
| 2026-05-07 12:10 | 45.74232 | 16.07716 | 351 ft | 2 kts | 68° |
| 2026-05-07 12:10 | 45.74226 | 16.07701 | 350 ft | 0 kts | 49° |
| 2026-05-07 12:11 | 45.74221 | 16.07694 | 350 ft | 1 kts | 45° |
| 2026-05-07 12:11 | 45.74221 | 16.07693 | 350 ft | 0 kts | 46° |
| 2026-05-07 12:13 | 45.74260 | 16.07750 | 351 ft | 10 kts | 46° |
| 2026-05-07 12:13 | 45.74318 | 16.07838 | 350 ft | 13 kts | 47° |
| 2026-05-07 12:13 | 45.74394 | 16.07885 | 350 ft | 13 kts | 338° |
| 2026-05-07 12:13 | 45.74465 | 16.07800 | 350 ft | 13 kts | 316° |
| 2026-05-07 12:14 | 45.74527 | 16.07714 | 350 ft | 14 kts | 315° |
| 2026-05-07 12:14 | 45.74598 | 16.07754 | 350 ft | 10 kts | 44° |
| 2026-05-07 12:14 | 45.74681 | 16.07869 | 350 ft | 18 kts | 44° |
| 2026-05-07 12:14 | 45.74769 | 16.08004 | 350 ft | 18 kts | 47° |
| 2026-05-07 12:15 | 45.74839 | 16.08068 | 350 ft | 9 kts | 318° |
| 2026-05-07 12:15 | 45.74881 | 16.08026 | 350 ft | 6 kts | 331° |
| 2026-05-07 12:15 | 45.74918 | 16.07982 | 350 ft | 7 kts | 315° |
| 2026-05-07 12:15 | 45.74951 | 16.07912 | 350 ft | 9 kts | 275° |
| 2026-05-07 12:16 | 45.74925 | 16.07837 | 350 ft | 0 kts | 226° |
| 2026-05-07 12:16 | 45.74890 | 16.07785 | 350 ft | 35 kts | 227° |
| 2026-05-07 12:16 | 45.74529 | 16.07235 | 347 ft | 112 kts | 226° |
| 2026-05-07 12:16 | 45.73857 | 16.06229 | 408 ft | 163 kts | 225° |
| 2026-05-07 12:17 | 45.73052 | 16.05030 | 991 ft | 169 kts | 224° |
| 2026-05-07 12:17 | 45.72189 | 16.03896 | 1689 ft | 170 kts | 219° |
| 2026-05-07 12:17 | 45.71261 | 16.02874 | 2412 ft | 175 kts | 214° |
| 2026-05-07 12:17 | 45.70343 | 16.01658 | 2949 ft | 189 kts | 229° |
| 2026-05-07 12:18 | 45.69952 | 16.00954 | 3177 ft | 197 kts | 231° |
| 2026-05-07 12:18 | 45.68589 | 15.98499 | 3790 ft | 229 kts | 229° |
| 2026-05-07 12:18 | 45.67432 | 15.96594 | 4344 ft | 249 kts | 228° |
| 2026-05-07 12:18 | 45.66179 | 15.94814 | 4988 ft | 262 kts | 214° |
| 2026-05-07 12:19 | 45.64572 | 15.93950 | 5809 ft | 267 kts | 187° |
| 2026-05-07 12:19 | 45.62666 | 15.94342 | 6741 ft | 274 kts | 159° |
| 2026-05-07 12:19 | 45.61112 | 15.95919 | 7564 ft | 283 kts | 134° |
| 2026-05-07 12:19 | 45.59872 | 15.98090 | 8375 ft | 287 kts | 131° |
| 2026-05-07 12:20 | 45.58699 | 16.00197 | 9137 ft | 291 kts | 131° |
| 2026-05-07 12:20 | 45.57352 | 16.02607 | 9970 ft | 295 kts | 132° |
| 2026-05-07 12:20 | 45.56047 | 16.04925 | 10628 ft | 304 kts | 132° |
| 2026-05-07 12:20 | 45.54688 | 16.07323 | 11012 ft | 321 kts | 132° |
| 2026-05-07 12:21 | 45.53249 | 16.09850 | 11336 ft | 339 kts | 132° |
| 2026-05-07 12:21 | 45.51740 | 16.12504 | 11875 ft | 349 kts | 132° |
| 2026-05-07 12:21 | 45.50206 | 16.15205 | 12633 ft | 352 kts | 132° |
| 2026-05-07 12:21 | 45.48665 | 16.17919 | 13355 ft | 354 kts | 132° |
| 2026-05-07 12:22 | 45.47071 | 16.20723 | 14133 ft | 357 kts | 133° |
| 2026-05-07 12:22 | 45.45562 | 16.23369 | 14794 ft | 360 kts | 133° |
| 2026-05-07 12:22 | 45.43986 | 16.26129 | 15434 ft | 363 kts | 133° |
| 2026-05-07 12:22 | 45.42379 | 16.28933 | 16106 ft | 366 kts | 133° |
| 2026-05-07 12:23 | 45.40906 | 16.31512 | 16681 ft | 369 kts | 133° |
| 2026-05-07 12:23 | 45.39146 | 16.34586 | 17359 ft | 373 kts | 133° |
| 2026-05-07 12:23 | 45.37489 | 16.37474 | 17973 ft | 376 kts | 133° |
| 2026-05-07 12:23 | 45.35851 | 16.40327 | 18553 ft | 380 kts | 133° |
| 2026-05-07 12:24 | 45.34184 | 16.43228 | 19102 ft | 384 kts | 133° |
| 2026-05-07 12:24 | 45.32470 | 16.46211 | 19664 ft | 387 kts | 134° |
| 2026-05-07 12:24 | 45.30764 | 16.49174 | 20229 ft | 390 kts | 134° |
| 2026-05-07 12:24 | 45.29043 | 16.52163 | 20777 ft | 393 kts | 134° |
| 2026-05-07 12:25 | 45.28126 | 16.53751 | 21059 ft | 395 kts | 134° |
| 2026-05-07 12:25 | 45.25566 | 16.58188 | 21851 ft | 400 kts | 134° |
| 2026-05-07 12:25 | 45.23797 | 16.61251 | 22380 ft | 403 kts | 134° |
| 2026-05-07 12:25 | 45.22035 | 16.64294 | 22879 ft | 406 kts | 134° |
| 2026-05-07 12:26 | 45.20219 | 16.67427 | 23378 ft | 409 kts | 135° |
| 2026-05-07 12:26 | 45.18388 | 16.70480 | 23876 ft | 411 kts | 137° |
| 2026-05-07 12:26 | 45.16513 | 16.73522 | 24333 ft | 414 kts | 137° |
| 2026-05-07 12:26 | 45.14608 | 16.76599 | 24815 ft | 417 kts | 137° |
| 2026-05-07 12:27 | 45.12787 | 16.79543 | 25285 ft | 419 kts | 137° |
| 2026-05-07 12:27 | 45.10767 | 16.82814 | 25774 ft | 422 kts | 137° |
| 2026-05-07 12:27 | 45.08840 | 16.85933 | 26223 ft | 424 kts | 137° |
| 2026-05-07 12:27 | 45.06901 | 16.89073 | 26620 ft | 427 kts | 137° |
| 2026-05-07 12:28 | 45.04951 | 16.92233 | 27034 ft | 430 kts | 137° |
| 2026-05-07 12:28 | 45.02975 | 16.95431 | 27428 ft | 432 kts | 137° |
| 2026-05-07 12:28 | 45.00975 | 16.98663 | 27824 ft | 435 kts | 137° |
| 2026-05-07 12:28 | 44.98988 | 17.01869 | 28197 ft | 437 kts | 137° |
| 2026-05-07 12:29 | 44.97162 | 17.04788 | 28506 ft | 439 kts | 138° |
| 2026-05-07 12:29 | 44.94842 | 17.08180 | 28846 ft | 439 kts | 141° |
| 2026-05-07 12:29 | 44.92656 | 17.11201 | 29154 ft | 442 kts | 141° |
| 2026-05-07 12:29 | 44.90480 | 17.14199 | 29482 ft | 443 kts | 141° |
| 2026-05-07 12:30 | 44.88457 | 17.16984 | 29782 ft | 445 kts | 141° |
| 2026-05-07 12:30 | 44.86017 | 17.20343 | 30086 ft | 448 kts | 141° |
| 2026-05-07 12:30 | 44.83762 | 17.23440 | 30341 ft | 451 kts | 141° |
| 2026-05-07 12:30 | 44.81504 | 17.26543 | 30638 ft | 452 kts | 141° |
| 2026-05-07 12:31 | 44.79286 | 17.29584 | 30848 ft | 455 kts | 141° |
| 2026-05-07 12:31 | 44.76910 | 17.32843 | 31081 ft | 457 kts | 141° |
| 2026-05-07 12:31 | 44.74638 | 17.35952 | 31318 ft | 458 kts | 141° |
| 2026-05-07 12:31 | 44.72344 | 17.39091 | 31639 ft | 457 kts | 141° |
| 2026-05-07 12:32 | 44.70090 | 17.42178 | 32011 ft | 455 kts | 141° |
| 2026-05-07 12:32 | 44.67763 | 17.45360 | 32360 ft | 454 kts | 141° |
| 2026-05-07 12:32 | 44.65514 | 17.48424 | 32639 ft | 454 kts | 141° |
| 2026-05-07 12:32 | 44.63238 | 17.51523 | 32959 ft | 452 kts | 141° |